Time;durP1;ratioP1;P1;durP2;ratioP2;P2;SDS_P1;SDS_P2;PMS_P1;PMS_P2;Temp;Humidity;BMP_temperature;BMP_pressure;BME280_temperature;BME280_humidity;BME280_pressure;Samples;Min_cycle;Max_cycle;Signal;HPM_P1;HPM_P2
2021/05/05 00:00:11;;;;;;;4.70;1.50;;;6.40;99.90;;;;;;5057294;28;20162;-78
2021/05/05 00:02:37;;;;;;;2.97;1.98;;;6.40;99.90;;;;;;5057184;28;20403;-78
2021/05/05 00:05:02;;;;;;;2.90;1.30;;;6.40;99.90;;;;;;5056787;28;20189;-79
2021/05/05 00:07:28;;;;;;;6.10;2.43;;;6.40;99.90;;;;;;5056799;28;20218;-78
2021/05/05 00:09:53;;;;;;;2.40;1.60;;;6.40;99.90;;;;;;5057001;28;20200;-79
2021/05/05 00:12:19;;;;;;;3.80;1.70;;;6.30;99.90;;;;;;5056807;28;20197;-79
2021/05/05 00:14:45;;;;;;;2.30;1.40;;;6.30;99.90;;;;;;5056399;28;20542;-78
2021/05/05 00:17:12;;;;;;;2.40;1.63;;;6.40;99.90;;;;;;5038978;28;20662;-77
2021/05/05 00:19:37;;;;;;;5.30;1.60;;;6.40;99.90;;;;;;5056784;28;20575;-78
2021/05/05 00:22:03;;;;;;;1.97;1.47;;;6.40;99.90;;;;;;5039009;28;20181;-79
2021/05/05 00:24:29;;;;;;;2.27;1.40;;;6.40;99.90;;;;;;5056601;28;20174;-78
2021/05/05 00:26:54;;;;;;;2.07;1.47;;;6.30;99.90;;;;;;5021773;28;20205;-78
2021/05/05 00:29:20;;;;;;;4.50;1.50;;;6.40;99.90;;;;;;5056554;28;20178;-78
2021/05/05 00:31:46;;;;;;;6.70;2.13;;;6.40;99.90;;;;;;5056565;28;20245;-78
2021/05/05 00:34:11;;;;;;;4.27;1.50;;;6.30;99.90;;;;;;5055284;28;20169;-78
2021/05/05 00:36:37;;;;;;;4.90;1.90;;;6.40;99.90;;;;;;5056139;28;20466;-79
2021/05/05 00:39:04;;;;;;;3.40;1.53;;;6.40;99.90;;;;;;5055022;28;20177;-79
2021/05/05 00:41:29;;;;;;;3.22;2.05;;;6.40;99.90;;;;;;5056365;28;20528;-78
2021/05/05 00:43:55;;;;;;;4.20;1.93;;;6.40;99.90;;;;;;5056451;28;20176;-78
2021/05/05 00:46:21;;;;;;;2.57;2.33;;;6.40;99.90;;;;;;5054756;28;20208;-79
2021/05/05 00:48:47;;;;;;;1.93;1.13;;;6.40;99.90;;;;;;5055200;28;20583;-78
2021/05/05 00:51:12;;;;;;;2.20;1.80;;;6.30;99.90;;;;;;5054908;28;20412;-77
2021/05/05 00:53:40;;;;;;;1.87;1.40;;;6.40;99.90;;;;;;5056060;28;20483;-78
2021/05/05 00:56:06;;;;;;;5.10;2.15;;;6.30;99.90;;;;;;5055804;28;20583;-78
2021/05/05 00:58:32;;;;;;;2.90;1.60;;;6.20;99.90;;;;;;5056089;28;20172;-78
2021/05/05 01:00:57;;;;;;;2.35;1.50;;;6.20;99.90;;;;;;5054654;28;20419;-78
2021/05/05 01:03:23;;;;;;;3.97;1.47;;;6.40;99.90;;;;;;5055831;28;20243;-78
2021/05/05 01:05:50;;;;;;;2.37;1.00;;;6.50;99.90;;;;;;5055862;28;20681;-77
2021/05/05 01:08:18;;;;;;;2.95;1.90;;;6.50;99.90;;;;;;5055797;28;20185;-78
2021/05/05 01:10:44;;;;;;;2.97;1.65;;;6.60;99.90;;;;;;5055807;28;20624;-77
2021/05/05 01:13:12;;;;;;;8.43;1.45;;;6.60;99.90;;;;;;5055690;28;20189;-78
2021/05/05 01:15:38;;;;;;;3.97;1.92;;;6.60;99.90;;;;;;5053985;28;20637;-78
2021/05/05 01:18:04;;;;;;;3.10;1.75;;;6.60;99.90;;;;;;5055753;28;20173;-77
2021/05/05 01:20:30;;;;;;;4.50;1.77;;;6.60;99.90;;;;;;5055628;28;20622;-77
2021/05/05 01:22:56;;;;;;;2.22;1.75;;;6.50;99.90;;;;;;5055629;28;20264;-78
2021/05/05 01:25:22;;;;;;;6.43;2.20;;;6.50;99.90;;;;;;5053940;28;20216;-78
2021/05/05 01:27:48;;;;;;;2.57;1.77;;;6.50;99.90;;;;;;5055465;28;20949;-78
2021/05/05 01:30:16;;;;;;;2.90;1.80;;;6.40;99.90;;;;;;5055887;28;20404;-78
2021/05/05 01:32:42;;;;;;;4.05;1.90;;;6.40;99.90;;;;;;5055580;28;20805;-78
2021/05/05 01:35:11;;;;;;;2.80;1.47;;;6.50;99.90;;;;;;5055012;28;20169;-78
2021/05/05 01:37:37;;;;;;;3.13;2.30;;;6.40;99.90;;;;;;5055411;28;20428;-79
2021/05/05 01:40:04;;;;;;;3.60;1.77;;;6.40;99.90;;;;;;5053983;28;20180;-79
2021/05/05 01:42:30;;;;;;;4.05;1.95;;;6.40;99.90;;;;;;5055201;28;20451;-78
2021/05/05 01:44:57;;;;;;;5.67;2.30;;;6.40;99.90;;;;;;5053575;28;20267;-79
2021/05/05 01:47:23;;;;;;;3.50;2.17;;;6.30;99.90;;;;;;5054995;28;20189;-79
2021/05/05 01:49:49;;;;;;;5.40;2.55;;;6.30;99.90;;;;;;5055080;28;20181;-78
2021/05/05 01:52:16;;;;;;;8.07;2.43;;;6.20;99.90;;;;;;5053809;28;20220;-78
2021/05/05 01:54:42;;;;;;;3.22;2.35;;;6.20;99.90;;;;;;5054798;28;20622;-79
2021/05/05 01:57:31;;;;;;;8.13;4.07;;;6.00;99.90;;;;;;5053901;28;20193;-79
2021/05/05 01:59:57;;;;;;;5.85;2.30;;;6.00;99.90;;;;;;5054932;28;20400;-79
2021/05/05 02:02:27;;;;;;;5.10;2.28;;;6.00;99.90;;;;;;5054905;28;20178;-78
2021/05/05 02:04:52;;;;;;;3.03;2.35;;;5.90;99.90;;;;;;5054665;28;20613;-78
2021/05/05 02:07:18;;;;;;;6.37;2.17;;;5.90;99.90;;;;;;5053464;28;20236;-79
2021/05/05 02:09:44;;;;;;;4.17;2.47;;;6.00;99.90;;;;;;5054554;28;20185;-78
2021/05/05 02:12:10;;;;;;;7.00;2.30;;;5.90;99.90;;;;;;5054644;28;20189;-79
2021/05/05 02:14:35;;;;;;;4.40;2.60;;;6.00;99.90;;;;;;5054321;28;20164;-80
2021/05/05 02:17:01;;;;;;;4.80;2.30;;;6.00;99.90;;;;;;5053373;28;20200;-78
2021/05/05 02:19:27;;;;;;;2.92;2.03;;;6.00;99.90;;;;;;5053189;28;20645;-78
2021/05/05 02:21:53;;;;;;;3.03;2.23;;;6.00;99.90;;;;;;5053851;28;20231;-77
2021/05/05 02:24:19;;;;;;;5.10;2.30;;;6.00;99.90;;;;;;5054471;28;20276;-78
2021/05/05 02:26:44;;;;;;;7.47;3.13;;;6.00;99.90;;;;;;5052892;28;20428;-79
2021/05/05 02:29:10;;;;;;;4.60;2.63;;;6.10;99.90;;;;;;5036521;28;20227;-78
2021/05/05 02:31:36;;;;;;;3.97;2.73;;;6.10;99.90;;;;;;5054186;28;20184;-78
2021/05/05 02:34:02;;;;;;;5.37;2.90;;;6.10;99.90;;;;;;5054092;28;20461;-77
2021/05/05 02:36:30;;;;;;;8.73;2.85;;;6.20;99.90;;;;;;5052596;28;20200;-79
2021/05/05 02:38:56;;;;;;;6.15;2.72;;;6.10;99.90;;;;;;5054324;28;20174;-78
2021/05/05 02:41:22;;;;;;;10.15;2.78;;;6.10;99.90;;;;;;5054236;28;20165;-79
2021/05/05 02:43:48;;;;;;;4.80;3.00;;;6.10;99.90;;;;;;5052883;28;20192;-79
2021/05/05 02:46:13;;;;;;;7.43;3.50;;;6.10;99.90;;;;;;5053548;28;20201;-79
2021/05/05 02:48:39;;;;;;;3.90;3.10;;;6.10;99.90;;;;;;5036491;28;20170;-80
2021/05/05 02:51:05;;;;;;;5.70;3.17;;;6.20;99.90;;;;;;5052688;28;20178;-79
2021/05/05 02:53:30;;;;;;;4.87;3.03;;;6.20;99.90;;;;;;5052771;28;20206;-78
2021/05/05 02:55:56;;;;;;;5.53;2.80;;;6.20;99.90;;;;;;5052642;28;20242;-79
2021/05/05 02:58:21;;;;;;;9.07;3.37;;;6.30;99.90;;;;;;5053813;28;20641;-77
2021/05/05 03:00:47;;;;;;;8.40;4.00;;;6.30;99.90;;;;;;5052826;28;20180;-79
2021/05/05 03:03:13;;;;;;;6.00;3.10;;;6.40;99.90;;;;;;5052476;28;20177;-78
2021/05/05 03:05:38;;;;;;;8.73;3.83;;;6.40;99.90;;;;;;5052266;28;20181;-80
2021/05/05 03:08:04;;;;;;;6.43;3.13;;;6.30;99.90;;;;;;5053441;28;20193;-78
2021/05/05 03:10:30;;;;;;;7.53;4.10;;;6.40;99.90;;;;;;5053593;28;20188;-80
2021/05/05 03:12:56;;;;;;;4.70;2.93;;;6.40;99.90;;;;;;5053480;28;20463;-80
2021/05/05 03:15:21;;;;;;;5.57;3.43;;;6.50;99.90;;;;;;5053147;28;20445;-79
2021/05/05 03:17:47;;;;;;;7.83;3.30;;;6.50;99.90;;;;;;5052179;28;20529;-79
2021/05/05 03:20:13;;;;;;;12.20;3.77;;;6.50;99.90;;;;;;5053391;28;20169;-80
2021/05/05 03:22:39;;;;;;;6.65;3.45;;;6.60;99.90;;;;;;5053235;28;20665;-79
2021/05/05 03:25:06;;;;;;;5.40;2.90;;;6.60;99.90;;;;;;5053258;28;20181;-80
2021/05/05 03:27:32;;;;;;;9.38;3.30;;;6.70;99.90;;;;;;5052170;28;20792;-80
2021/05/05 03:29:58;;;;;;;9.50;3.70;;;6.60;99.90;;;;;;5053359;28;20165;-78
2021/05/05 03:32:23;;;;;;;7.23;3.97;;;6.60;99.90;;;;;;5052453;28;20219;-80
2021/05/05 03:34:49;;;;;;;11.57;3.80;;;6.50;99.90;;;;;;5053038;28;21182;-79
2021/05/05 03:37:15;;;;;;;14.83;3.40;;;6.30;99.90;;;;;;5053489;28;20254;-80
2021/05/05 03:39:40;;;;;;;6.10;3.47;;;6.40;99.90;;;;;;5052141;28;20534;-78
2021/05/05 03:42:06;;;;;;;12.13;3.87;;;6.30;99.90;;;;;;5053259;28;20181;-79
2021/05/05 03:44:32;;;;;;;14.75;3.47;;;6.30;99.90;;;;;;5052721;28;20310;-80
2021/05/05 03:46:58;;;;;;;10.37;3.37;;;6.30;99.90;;;;;;5053041;28;20238;-78
2021/05/05 03:49:23;;;;;;;9.17;3.77;;;6.30;99.90;;;;;;5053065;28;20181;-78
2021/05/05 03:51:49;;;;;;;9.30;4.10;;;6.30;99.90;;;;;;5052958;28;20199;-80
2021/05/05 03:54:17;;;;;;;11.20;4.33;;;6.20;99.90;;;;;;5053145;28;20165;-81
2021/05/05 03:56:43;;;;;;;10.50;3.40;;;6.20;99.90;;;;;;5052613;28;20191;-79
2021/05/05 03:59:09;;;;;;;8.30;3.63;;;6.20;99.90;;;;;;5053086;28;20158;-80
2021/05/05 04:01:35;;;;;;;7.97;3.73;;;6.10;99.90;;;;;;5052041;28;20186;-79
2021/05/05 04:04:00;;;;;;;8.33;3.50;;;6.10;99.90;;;;;;5053016;28;20200;-79
2021/05/05 04:06:26;;;;;;;11.67;5.27;;;6.10;99.90;;;;;;5052734;28;20512;-80
2021/05/05 04:08:51;;;;;;;8.93;3.67;;;6.10;99.90;;;;;;5052794;28;20188;-79
2021/05/05 04:11:17;;;;;;;13.10;4.93;;;6.00;99.90;;;;;;5052917;28;20168;-80
2021/05/05 04:13:43;;;;;;;10.70;4.43;;;6.10;99.90;;;;;;5052926;28;20209;-80
2021/05/05 04:16:09;;;;;;;7.53;3.80;;;6.10;99.90;;;;;;5052501;28;20464;-79
2021/05/05 04:18:34;;;;;;;7.07;3.17;;;6.00;99.90;;;;;;5052667;28;20173;-78
2021/05/05 04:21:03;;;;;;;14.60;4.50;;;6.10;99.90;;;;;;5052605;28;20422;-79
2021/05/05 04:23:30;;;;;;;5.85;3.40;;;6.10;99.90;;;;;;5052707;28;20174;-79
2021/05/05 04:25:56;;;;;;;7.40;3.80;;;6.20;99.90;;;;;;5052465;28;20595;-78
2021/05/05 04:28:21;;;;;;;9.47;3.43;;;6.20;99.90;;;;;;5052763;28;20182;-79
2021/05/05 04:30:47;;;;;;;7.37;3.97;;;6.30;99.90;;;;;;5052614;28;20189;-79
2021/05/05 04:33:13;;;;;;;6.10;3.33;;;6.30;99.90;;;;;;5052371;28;20218;-78
2021/05/05 04:35:38;;;;;;;10.77;3.73;;;6.40;99.90;;;;;;5052476;28;20174;-79
2021/05/05 04:38:04;;;;;;;7.50;4.10;;;6.50;99.90;;;;;;5052706;28;20443;-81
2021/05/05 04:40:30;;;;;;;8.57;4.63;;;6.50;99.90;;;;;;5034654;28;20200;-81
2021/05/05 04:42:55;;;;;;;15.23;4.50;;;6.60;99.90;;;;;;5052537;28;20176;-80
2021/05/05 04:45:21;;;;;;;15.23;4.60;;;6.70;99.90;;;;;;5055225;28;20926;-79
2021/05/05 04:47:46;;;;;;;11.10;4.40;;;6.70;99.90;;;;;;5056165;28;20223;-80
2021/05/05 04:50:13;;;;;;;7.00;4.03;;;6.70;99.90;;;;;;5056373;28;20657;-80
2021/05/05 04:52:39;;;;;;;7.95;4.18;;;6.70;99.90;;;;;;5056376;28;20228;-80
2021/05/05 04:55:06;;;;;;;5.97;4.40;;;6.70;99.90;;;;;;5055984;28;20193;-79
2021/05/05 04:57:32;;;;;;;6.85;3.90;;;6.80;99.90;;;;;;5055978;28;20192;-79
2021/05/05 04:59:57;;;;;;;6.00;3.77;;;6.80;99.90;;;;;;5054803;28;20169;-79
2021/05/05 05:02:23;;;;;;;7.77;4.57;;;6.80;99.90;;;;;;5054328;28;20192;-80
2021/05/05 05:04:49;;;;;;;8.87;3.60;;;6.80;99.90;;;;;;5055737;28;20177;-78
2021/05/05 05:07:14;;;;;;;9.93;4.03;;;6.90;99.90;;;;;;5037834;28;20219;-79
2021/05/05 05:09:40;;;;;;;7.13;3.50;;;6.90;99.90;;;;;;5054748;28;20527;-79
2021/05/05 05:12:06;;;;;;;10.60;3.93;;;6.90;99.90;;;;;;5055794;28;20361;-79
2021/05/05 05:14:31;;;;;;;6.57;4.20;;;7.00;99.90;;;;;;5055248;28;20165;-80
2021/05/05 05:16:58;;;;;;;9.80;3.43;;;7.10;99.90;;;;;;5055666;28;20420;-80
2021/05/05 05:19:24;;;;;;;9.13;3.22;;;7.10;99.90;;;;;;5055533;28;20185;-79
2021/05/05 05:21:50;;;;;;;6.50;4.10;;;7.20;99.90;;;;;;5054319;28;20177;-81
2021/05/05 05:24:15;;;;;;;5.53;3.40;;;7.30;99.90;;;;;;5055540;28;20227;-79
2021/05/05 05:26:41;;;;;;;4.60;3.17;;;7.20;99.90;;;;;;5055055;28;20284;-81
2021/05/05 05:29:06;;;;;;;4.13;2.77;;;7.30;99.90;;;;;;5055250;28;20173;-78
2021/05/05 05:31:33;;;;;;;18.40;4.57;;;7.30;99.90;;;;;;5054202;28;20657;-79
2021/05/05 05:33:58;;;;;;;9.65;4.07;;;7.50;99.90;;;;;;5055433;28;20515;-80
2021/05/05 05:36:24;;;;;;;11.93;4.13;;;7.50;99.90;;;;;;5054997;28;20211;-78
2021/05/05 05:38:49;;;;;;;8.00;4.20;;;7.50;99.90;;;;;;5055262;28;20515;-77
2021/05/05 05:41:15;;;;;;;5.17;3.53;;;7.40;99.90;;;;;;5055463;28;20170;-78
2021/05/05 05:43:41;;;;;;;8.80;4.40;;;7.30;99.90;;;;;;5055460;28;20588;-78
2021/05/05 05:46:07;;;;;;;10.00;4.60;;;7.20;99.90;;;;;;5054339;28;20193;-77
2021/05/05 05:48:32;;;;;;;8.00;4.70;;;7.40;99.90;;;;;;5055307;28;20525;-79
2021/05/05 05:50:59;;;;;;;14.43;5.17;;;7.30;99.90;;;;;;5055187;28;20224;-81
2021/05/05 05:53:25;;;;;;;10.98;4.38;;;7.20;99.90;;;;;;5037137;28;20217;-78
2021/05/05 05:55:51;;;;;;;11.57;5.50;;;7.10;99.90;;;;;;5053881;28;20190;-81
2021/05/05 05:58:17;;;;;;;14.88;4.93;;;7.10;99.90;;;;;;5054918;28;20165;-81
2021/05/05 06:00:43;;;;;;;16.55;7.30;;;7.10;99.90;;;;;;5055027;28;20264;-80
2021/05/05 06:03:08;;;;;;;22.02;6.53;;;7.30;99.90;;;;;;5054841;28;20492;-80
2021/05/05 06:05:35;;;;;;;11.17;5.97;;;7.40;99.90;;;;;;5053054;28;20176;-79
2021/05/05 06:08:03;;;;;;;13.55;6.18;;;7.30;99.90;;;;;;5036949;28;20830;-79
2021/05/05 06:10:28;;;;;;;14.50;6.65;;;7.20;99.90;;;;;;5054599;28;20205;-79
2021/05/05 06:12:54;;;;;;;15.70;5.37;;;7.00;99.90;;;;;;5054741;28;20228;-80
2021/05/05 06:15:21;;;;;;;4.83;3.93;;;7.10;99.90;;;;;;5054395;28;20551;-81
2021/05/05 06:17:47;;;;;;;9.20;5.20;;;7.10;99.90;;;;;;5053237;28;20463;-81
2021/05/05 06:20:13;;;;;;;13.82;5.60;;;7.10;99.90;;;;;;5054590;28;20169;-80
2021/05/05 06:22:39;;;;;;;11.52;5.63;;;7.20;99.90;;;;;;5053137;28;20690;-79
2021/05/05 06:25:07;;;;;;;6.70;4.77;;;7.30;99.90;;;;;;5054232;28;20178;-79
2021/05/05 06:27:33;;;;;;;10.23;4.60;;;7.30;99.90;;;;;;5052975;28;20691;-81
2021/05/05 06:29:59;;;;;;;7.30;4.75;;;7.30;99.90;;;;;;5054241;28;20174;-79
2021/05/05 06:32:25;;;;;;;5.77;3.57;;;7.30;99.90;;;;;;5052860;28;20265;-80
2021/05/05 06:34:51;;;;;;;10.70;4.97;;;7.40;99.90;;;;;;5053946;28;20188;-79
2021/05/05 06:37:17;;;;;;;7.18;4.53;;;7.50;99.90;;;;;;5054167;28;20512;-79
2021/05/05 06:39:43;;;;;;;10.40;5.77;;;7.50;99.90;;;;;;5053937;28;20634;-78
2021/05/05 06:42:09;;;;;;;9.37;4.00;;;7.70;99.90;;;;;;5054076;28;20183;-78
2021/05/05 06:44:34;;;;;;;6.17;4.10;;;7.80;99.90;;;;;;5052213;28;20241;-80
2021/05/05 06:47:00;;;;;;;9.63;5.33;;;7.70;99.90;;;;;;5053722;28;20438;-82
2021/05/05 06:49:26;;;;;;;6.80;4.90;;;7.50;99.90;;;;;;5054326;28;20181;-78
2021/05/05 06:51:52;;;;;;;10.90;4.07;;;7.30;99.90;;;;;;5053039;28;20241;-77
2021/05/05 06:54:18;;;;;;;5.63;4.40;;;7.10;99.90;;;;;;5053481;28;20170;-80
2021/05/05 06:56:44;;;;;;;6.38;3.70;;;7.00;99.90;;;;;;5051880;28;20304;-78
2021/05/05 06:59:09;;;;;;;2.60;1.87;;;6.90;99.90;;;;;;5053468;28;20169;-78
2021/05/05 07:01:37;;;;;;;1.40;1.30;;;5.90;99.90;;;;;;5052571;28;20252;-78
2021/05/05 07:04:09;;;;;;;1.95;1.85;;;5.50;99.90;;;;;;5052748;28;20192;-79
2021/05/05 07:06:36;;;;;;;5.10;4.60;;;5.40;99.90;;;;;;5051874;28;20271;-75
2021/05/05 07:09:02;;;;;;;9.75;4.68;;;5.50;99.90;;;;;;5052320;28;20543;-77
2021/05/05 07:11:28;;;;;;;9.10;6.50;;;5.70;99.90;;;;;;5036385;28;20544;-81
2021/05/05 07:13:54;;;;;;;7.37;4.03;;;5.90;99.90;;;;;;5052197;28;20239;-78
2021/05/05 07:16:21;;;;;;;7.03;5.50;;;6.20;99.90;;;;;;5053053;28;20194;-77
2021/05/05 07:18:47;;;;;;;10.18;5.55;;;6.40;99.90;;;;;;5053502;28;20173;-77
2021/05/05 07:21:14;;;;;;;7.63;4.30;;;6.50;99.90;;;;;;5053560;28;20197;-79
2021/05/05 07:23:39;;;;;;;7.25;4.00;;;6.60;99.90;;;;;;5053298;28;20247;-78
2021/05/05 07:26:05;;;;;;;5.50;4.33;;;6.70;99.90;;;;;;5052899;28;20281;-78
2021/05/05 07:28:31;;;;;;;4.30;3.07;;;6.90;99.90;;;;;;5053267;28;20173;-78
2021/05/05 07:30:57;;;;;;;7.57;4.70;;;7.10;99.90;;;;;;5053242;28;20188;-78
2021/05/05 07:33:24;;;;;;;7.10;4.32;;;7.20;99.90;;;;;;5053137;28;20567;-80
2021/05/05 07:35:53;;;;;;;3.15;2.85;;;7.50;99.90;;;;;;5052802;28;20185;-79
2021/05/05 07:41:35;;;;;;;6.15;4.25;;;7.80;99.90;;;;;;5053508;28;20169;-78
2021/05/05 07:46:43;;;;;;;6.05;3.00;;;8.00;99.90;;;;;;5052984;28;20238;-79
2021/05/05 07:49:11;;;;;;;5.45;3.00;;;7.90;99.90;;;;;;5052296;28;20165;-79
2021/05/05 07:51:37;;;;;;;6.03;3.13;;;7.80;99.90;;;;;;5053150;28;20598;-78
2021/05/05 07:54:03;;;;;;;6.47;3.53;;;7.80;99.90;;;;;;5052079;28;20177;-78
2021/05/05 07:56:29;;;;;;;11.35;3.28;;;7.80;99.90;;;;;;5052722;28;20428;-80
2021/05/05 07:59:00;;;;;;;5.33;3.07;;;7.80;99.90;;;;;;5053151;28;20156;-82
2021/05/05 08:01:26;;;;;;;7.07;3.70;;;7.80;99.90;;;;;;5051930;28;20423;-82
2021/05/05 08:03:52;;;;;;;4.47;3.53;;;7.90;99.90;;;;;;5051917;28;20170;-78
2021/05/05 08:06:17;;;;;;;3.10;2.80;;;7.90;99.90;;;;;;5052561;28;20501;-80
2021/05/05 08:08:43;;;;;;;5.17;3.30;;;7.70;99.90;;;;;;5053004;28;20185;-81
2021/05/05 08:11:09;;;;;;;4.40;3.10;;;7.60;99.90;;;;;;5051596;28;20181;-78
2021/05/05 08:13:34;;;;;;;7.13;2.97;;;7.60;99.90;;;;;;5053016;28;20193;-80
2021/05/05 08:16:00;;;;;;;3.70;3.10;;;7.00;99.90;;;;;;5051789;28;20296;-79
2021/05/05 08:18:26;;;;;;;8.20;3.00;;;6.20;99.90;;;;;;5053020;28;20178;-77
2021/05/05 08:20:52;;;;;;;3.40;2.83;;;6.20;99.90;;;;;;5055543;28;20538;-78
2021/05/05 08:23:19;;;;;;;4.38;2.45;;;5.80;99.90;;;;;;5055505;28;20174;-78
2021/05/05 08:25:47;;;;;;;3.70;2.00;;;5.50;99.90;;;;;;5055110;28;20234;-77
2021/05/05 08:28:12;;;;;;;5.35;1.88;;;4.90;99.90;;;;;;5056751;28;20189;-77
2021/05/05 08:30:39;;;;;;;2.97;1.70;;;4.50;99.90;;;;;;5056558;28;20173;-77
2021/05/05 08:33:05;;;;;;;4.50;2.75;;;4.50;99.90;;;;;;5056443;28;20465;-75
2021/05/05 08:35:31;;;;;;;4.67;3.20;;;4.70;99.90;;;;;;5056063;28;20169;-75
2021/05/05 08:37:56;;;;;;;4.83;4.27;;;4.90;99.90;;;;;;5055092;28;20780;-74
2021/05/05 08:40:22;;;;;;;3.33;3.03;;;5.20;99.90;;;;;;5056245;28;20169;-75
2021/05/05 08:42:49;;;;;;;4.53;3.40;;;5.30;99.90;;;;;;5056234;28;20633;-75
2021/05/05 08:45:19;;;;;;;4.40;3.70;;;5.40;99.90;;;;;;5056021;28;20442;-75
2021/05/05 08:47:47;;;;;;;3.50;3.20;;;5.50;99.90;;;;;;5056273;28;20599;-74
2021/05/05 08:50:14;;;;;;;5.65;4.03;;;5.60;99.90;;;;;;5056309;28;20169;-75
2021/05/05 08:52:40;;;;;;;3.97;3.65;;;5.60;99.90;;;;;;5056088;28;20194;-75
2021/05/05 08:55:12;;;;;;;4.55;2.95;;;5.60;99.90;;;;;;5055798;28;20180;-75
2021/05/05 08:57:38;;;;;;;3.78;2.70;;;5.70;99.90;;;;;;5055954;28;20185;-76
2021/05/05 09:00:07;;;;;;;3.33;2.30;;;5.70;99.90;;;;;;5054859;28;20288;-75
2021/05/05 09:02:32;;;;;;;3.47;3.17;;;5.90;99.90;;;;;;5054899;28;20173;-74
2021/05/05 09:05:00;;;;;;;2.53;2.03;;;6.30;99.90;;;;;;5055800;28;20177;-74
2021/05/05 09:07:36;;;;;;;2.08;1.67;;;6.60;99.90;;;;;;5055641;28;20613;-75
2021/05/05 09:10:06;;;;;;;2.15;1.95;;;7.00;99.90;;;;;;5055831;28;20230;-75
2021/05/05 09:12:37;;;;;;;3.30;2.30;;;7.50;99.90;;;;;;5054498;28;20201;-76
2021/05/05 09:15:07;;;;;;;3.55;2.22;;;7.60;99.90;;;;;;5055331;28;20170;-77
2021/05/05 09:17:36;;;;;;;4.70;2.30;;;8.00;99.90;;;;;;5055630;28;20193;-77
2021/05/05 09:20:04;;;;;;;4.28;2.20;;;8.10;99.90;;;;;;5055644;28;20165;-75
2021/05/05 09:22:51;;;;;;;4.03;1.45;;;8.40;99.90;;;;;;5055514;28;20528;-77
2021/05/05 09:25:21;;;;;;;6.38;2.28;;;8.30;99.90;;;;;;5055267;28;20166;-76
2021/05/05 09:28:09;;;;;;;2.73;1.80;;;8.30;99.90;;;;;;5055687;28;20649;-75
2021/05/05 09:30:35;;;;;;;4.00;2.57;;;8.50;99.90;;;;;;5054238;28;20900;-77
2021/05/05 09:33:02;;;;;;;4.80;2.27;;;8.90;99.90;;;;;;5055227;28;20501;-78
2021/05/05 09:35:33;;;;;;;2.57;2.37;;;8.60;99.90;;;;;;5054926;28;20404;-77
2021/05/05 09:38:07;;;;;;;6.40;3.27;;;8.80;99.90;;;;;;5054064;28;20465;-77
2021/05/05 09:40:34;;;;;;;3.20;2.33;;;8.80;99.90;;;;;;5055221;28;20406;-78
2021/05/05 09:43:16;;;;;;;3.92;2.60;;;8.70;99.90;;;;;;5055275;28;20470;-76
2021/05/05 09:45:43;;;;;;;13.25;2.83;;;8.50;99.90;;;;;;5054953;28;20181;-77
2021/05/05 09:48:09;;;;;;;9.70;3.28;;;8.60;99.90;;;;;;5055234;28;20185;-77
2021/05/05 09:50:39;;;;;;;5.57;3.10;;;8.60;99.90;;;;;;5054089;28;20552;-78
2021/05/05 09:53:16;;;;;;;5.22;2.25;;;8.70;99.90;;;;;;5053894;28;20220;-77
2021/05/05 09:56:02;;;;;;;3.95;2.30;;;8.80;99.90;;;;;;5054760;28;20176;-80
2021/05/05 09:58:35;;;;;;;3.88;2.67;;;8.90;99.90;;;;;;5041160;28;20189;-80
2021/05/05 10:01:04;;;;;;;7.32;2.78;;;8.90;99.90;;;;;;5055245;28;20252;-78
2021/05/05 10:03:40;;;;;;;7.07;2.40;;;8.90;99.90;;;;;;5054941;28;20649;-79
2021/05/05 10:06:25;;;;;;;7.63;2.70;;;9.10;99.90;;;;;;5054638;28;20595;-79
2021/05/05 10:08:52;;;;;;;6.97;3.65;;;9.40;99.90;;;;;;5054767;28;20315;-78
2021/05/05 10:11:30;;;;;;;4.40;2.30;;;9.60;99.90;;;;;;5053482;28;20181;-80
2021/05/05 10:13:58;;;;;;;5.90;3.10;;;9.40;99.90;;;;;;5054908;28;20278;-81
2021/05/05 10:16:25;;;;;;;3.58;2.15;;;9.30;99.90;;;;;;5053462;28;20193;-81
2021/05/05 10:18:51;;;;;;;3.53;2.53;;;9.30;99.90;;;;;;5054924;28;20182;-81
2021/05/05 10:21:20;;;;;;;3.80;2.35;;;9.10;99.90;;;;;;5054784;28;20227;-81
2021/05/05 10:23:47;;;;;;;8.27;2.53;;;9.20;99.90;;;;;;5054413;28;20185;-78
2021/05/05 10:26:13;;;;;;;3.10;1.90;;;9.90;99.90;;;;;;5054247;28;20428;-79
2021/05/05 10:28:39;;;;;;;7.83;2.43;;;10.00;99.90;;;;;;5054498;28;20815;-80
2021/05/05 10:31:17;;;;;;;3.53;2.10;;;10.20;99.90;;;;;;5054526;28;20209;-81
2021/05/05 10:33:45;;;;;;;3.40;2.00;;;10.70;99.90;;;;;;5054363;28;20805;-81
2021/05/05 10:36:38;;;;;;;2.87;1.17;;;10.70;99.90;;;;;;5054114;28;20507;-83
2021/05/05 10:39:18;;;;;;;8.83;3.13;;;10.30;99.90;;;;;;5054651;28;20408;-82
2021/05/05 10:41:59;;;;;;;4.00;1.63;;;10.20;99.90;;;;;;5053778;28;20419;-80
2021/05/05 10:44:58;;;;;;;3.95;2.10;;;9.10;99.90;;;;;;5054308;28;20208;-78
2021/05/05 10:47:37;;;;;;;3.38;1.70;;;8.30;99.90;;;;;;5054203;28;20216;-81
2021/05/05 10:50:08;;;;;;;5.82;2.00;;;8.30;99.90;;;;;;5054204;28;20605;-79
2021/05/05 10:52:34;;;;;;;1.48;1.30;;;8.50;99.90;;;;;;5054102;28;20189;-78
2021/05/05 10:55:00;;;;;;;2.70;1.60;;;8.60;99.90;;;;;;5052816;28;20525;-84
2021/05/05 10:57:27;;;;;;;4.33;1.93;;;9.50;99.90;;;;;;5052298;28;20205;-81
2021/05/05 11:00:08;;;;;;;7.77;1.90;;;10.20;99.90;;;;;;5052412;28;20408;-82
2021/05/05 11:05:12;;;;;;;3.00;1.83;;;10.00;99.90;;;;;;5053851;28;20537;-80
2021/05/05 11:07:49;;;;;;;4.00;1.90;;;10.10;99.90;;;;;;5053537;28;20890;-79
2021/05/05 11:10:33;;;;;;;4.97;2.30;;;10.20;99.90;;;;;;5053774;28;20498;-81
2021/05/05 11:13:17;;;;;;;5.45;2.15;;;10.40;99.90;;;;;;5053736;28;20462;-82
2021/05/05 11:15:43;;;;;;;2.87;2.07;;;10.20;99.90;;;;;;5051851;28;20173;-80
2021/05/05 11:18:27;;;;;;;6.60;2.50;;;10.30;99.90;;;;;;5052316;28;20450;-81
2021/05/05 11:21:02;;;;;;;3.73;1.70;;;10.60;99.90;;;;;;5053692;28;20395;-79
2021/05/05 11:26:25;;;;;;;5.47;2.45;;;10.80;99.90;;;;;;5053109;28;20432;-79
2021/05/05 11:28:57;;;;;;;4.97;1.70;;;10.90;99.90;;;;;;5053433;28;20170;-81
2021/05/05 11:31:44;;;;;;;6.32;2.05;;;10.60;99.90;;;;;;5053546;28;20166;-80
2021/05/05 11:34:28;;;;;;;2.55;2.15;;;10.50;99.90;;;;;;5053358;28;20251;-83
2021/05/05 11:37:20;;;;;;;3.22;2.10;;;10.20;99.90;;;;;;5053140;28;20704;-82
2021/05/05 11:39:48;;;;;;;3.70;2.35;;;10.30;99.90;;;;;;5053349;28;20252;-81
2021/05/05 11:42:17;;;;;;;2.38;1.95;;;10.40;99.90;;;;;;5053140;28;20169;-79
2021/05/05 11:44:44;;;;;;;3.10;2.33;;;10.50;99.90;;;;;;5051686;28;20180;-82
2021/05/05 11:47:31;;;;;;;5.00;2.13;;;10.40;99.90;;;;;;5051838;28;20490;-81
2021/05/05 11:50:03;;;;;;;3.42;2.45;;;10.50;99.90;;;;;;5053474;28;20192;-82
2021/05/05 11:52:29;;;;;;;2.65;1.95;;;10.60;99.90;;;;;;5053062;28;20193;-80
2021/05/05 11:54:59;;;;;;;4.53;2.50;;;10.90;99.90;;;;;;5055797;28;20173;-77
2021/05/05 11:57:27;;;;;;;4.73;2.40;;;11.30;99.90;;;;;;5057394;28;20185;-79
2021/05/05 11:59:53;;;;;;;2.73;2.20;;;11.50;99.90;;;;;;5056278;28;20764;-78
2021/05/05 12:02:20;;;;;;;4.10;1.87;;;11.40;99.90;;;;;;5056128;28;20449;-80
2021/05/05 12:04:47;;;;;;;2.77;1.53;;;11.50;99.90;;;;;;5057123;28;20446;-79
2021/05/05 12:07:17;;;;;;;5.50;2.30;;;11.40;99.90;;;;;;5039339;28;20830;-79
2021/05/05 12:09:44;;;;;;;4.93;2.30;;;11.60;99.90;;;;;;5057043;28;20709;-82
2021/05/05 12:12:26;;;;;;;5.40;2.47;;;11.40;99.90;;;;;;5055737;28;20472;-81
2021/05/05 12:15:05;;;;;;;9.10;1.90;;;12.00;99.90;;;;;;5056747;28;20753;-80
2021/05/05 12:17:43;;;;;;;6.83;2.30;;;11.90;99.90;;;;;;5056823;28;20482;-80
2021/05/05 12:20:12;;;;;;;5.47;2.10;;;12.40;99.90;;;;;;5056982;28;20407;-80
2021/05/05 12:22:56;;;;;;;2.97;1.50;;;11.90;99.90;;;;;;5055440;28;20416;-81
2021/05/05 12:25:24;;;;;;;3.17;1.75;;;11.40;99.90;;;;;;5056635;28;20805;-81
2021/05/05 12:27:59;;;;;;;4.10;1.80;;;11.10;99.90;;;;;;5056491;28;20194;-79
2021/05/05 12:30:38;;;;;;;4.27;1.97;;;10.90;99.90;;;;;;5056604;28;20918;-79
2021/05/05 12:33:04;;;;;;;4.00;2.50;;;10.70;99.90;;;;;;5056739;28;20508;-80
2021/05/05 12:35:31;;;;;;;4.80;2.37;;;10.10;99.90;;;;;;5054825;28;20764;-79
2021/05/05 12:37:56;;;;;;;2.80;2.25;;;9.60;99.90;;;;;;5056530;28;20473;-80
2021/05/05 12:40:26;;;;;;;3.93;2.30;;;9.50;99.90;;;;;;5056394;28;20244;-80
2021/05/05 12:42:54;;;;;;;3.67;1.85;;;8.90;99.90;;;;;;5056965;28;20162;-80
2021/05/05 12:45:21;;;;;;;11.55;2.50;;;8.90;99.90;;;;;;5056087;28;20189;-81
2021/05/05 12:47:48;;;;;;;4.68;2.35;;;9.10;99.90;;;;;;5054939;28;20189;-78
2021/05/05 12:50:15;;;;;;;5.28;2.50;;;9.70;99.90;;;;;;5056310;28;20180;-79
2021/05/05 12:52:42;;;;;;;3.78;2.40;;;10.30;99.90;;;;;;5054904;28;20255;-81
2021/05/05 12:55:24;;;;;;;5.20;2.20;;;10.60;99.90;;;;;;5055929;28;20166;-78
2021/05/05 12:58:13;;;;;;;6.50;3.40;;;10.10;99.90;;;;;;5056075;28;20193;-81
2021/05/05 13:00:49;;;;;;;9.85;2.05;;;9.80;99.90;;;;;;5054507;28;20215;-80
2021/05/05 13:03:18;;;;;;;3.42;1.92;;;9.60;99.90;;;;;;5055988;28;20200;-80
2021/05/05 13:06:02;;;;;;;3.72;1.80;;;9.30;99.90;;;;;;5055203;28;20170;-79
2021/05/05 13:08:51;;;;;;;7.55;1.85;;;10.00;99.90;;;;;;5054856;28;20230;-80
2021/05/05 13:11:34;;;;;;;5.60;2.15;;;11.20;99.90;;;;;;5054669;28;20200;-79